Accueil
METAR-TAF:

METAR-TAF

Aéroports :

Aéroport de Parme

Parme, Italie

latitude: 44-49-17N, longitude: 010-17-41E, altitude: 50 m

Observation

Le bulletin a été fait il y a 44 minutes, à 11:50 UTC
Vent 3 kt de nord/nord-ouest, variant entre ouest et nord-est
Température 8°C
Humidité 81%
Pression 1025 hPa
Visibilité: 3000 m
brume

METAR: LIMP 261150Z 34003KT 270V050 3000 BR NSC 08/05 Q1025

Heure: 13:34 (12:34 UTC)

Prévision

Le bulletin a été fait il y a 1 heure et 34 minutes, à 11:00 UTC
Prévision valable du 26 à 12 UTC au 27 à 12 UTC
Vent 3 kt de direction variable
Visibilité: 7000 m
Evoluant progressivement
du 26 à 18 UTC au 26 à 20 UTC
Visibilité: 3000 m
brume
Temporairement
du 26 à 00 UTC au 26 à 06 UTC
Visibilité: 0600 m
Nuages fragmentés à une hauteur de 400 ft
brouillard

TAF: LIMP 261100Z 2612/2712 VRB03KT 7000 NSC BECMG 2618/2620 3000 BR TEMPO 2600/2606 0600 FG BKN004

Observations et prévisions météorologiques de plus de 4000 aéroports (messages METAR et TAF).

Les stations disponibles sont représentées par des disques jaunes et rouges sur la carte.

Passer la souris dessus pour voir le nom de la station.

Cliquer dessus pour voir les observations et prévisions météorologiques.

Pour changer de carte: cliquez sur les boutons verts avec une croix noire pour zoomer, sur le bouton vert avec un tiret pour effectuer un zoom arrière, ou sur les flèches vertes pour les cartes adjacentes.


METAR-TAF: